LFKJ/AJA METAR and TAF weather

Enter ICAO airport designator
Station Type Date Time Source
LFKJ METAR 2019/10/15 19:00 UTC NOAA

LFKJ 151900Z AUTO 02003KT 9999 SCT031 16/13 Q1016 NOSIG


Station Type Date Time Source
LFKJ Decoded METAR 2019/10/15 19:00 UTC NOAA

Ajaccio, France (LFKJ) 41-55N 008-48E 9M
Oct 15, 2019 - 03:00 PM EDT / 2019.10.15 1900 UTC
Wind: from the NNE (020 degrees) at 3 MPH (3 KT):0
Visibility: greater than 7 mile(s):0
Sky conditions: partly cloudy
Temperature: 60 F (16 C)
Dew Point: 55 F (13 C)
Relative Humidity: 82%
Pressure (altimeter): 30.00 in. Hg (1016 hPa)
ob: LFKJ 151900Z AUTO 02003KT 9999 SCT031 16/13 Q1016 NOSIG
cycle: 19

Station Type Date Time Source
LFKJ TAF 2019/10/15 15:26 UTC NOAA

TAF LFKJ 151400Z 1515/1615 20015KT 9999 FEW040 BKN080
TEMPO 1515/1518 SHRA SCT026TCU
BECMG 1518/1521 06005KT NSW NSC

Example: see airport list